sensor_id;sensor_type;location;lat;lon;timestamp;pressure;altitude;pressure_sealevel;temperature
70415;BMP280;57837;52.064;113.478;2023-11-19T00:01:48;93685.06;;;-1.86
70415;BMP280;57837;52.064;113.478;2023-11-19T00:04:51;93687.69;;;-1.79
70415;BMP280;57837;52.064;113.478;2023-11-19T00:07:55;93695.31;;;-1.76
70415;BMP280;57837;52.064;113.478;2023-11-19T00:10:59;93696.84;;;-1.67
70415;BMP280;57837;52.064;113.478;2023-11-19T00:14:04;93686.94;;;-1.80
70415;BMP280;57837;52.064;113.478;2023-11-19T00:17:07;93688.78;;;-1.77
70415;BMP280;57837;52.064;113.478;2023-11-19T00:20:14;93691.06;;;-1.68
70415;BMP280;57837;52.064;113.478;2023-11-19T00:23:18;93694.44;;;-1.53
70415;BMP280;57837;52.064;113.478;2023-11-19T00:26:22;93689.72;;;-1.55
70415;BMP280;57837;52.064;113.478;2023-11-19T00:29:27;93686.72;;;-1.64
70415;BMP280;57837;52.064;113.478;2023-11-19T00:32:32;93685.28;;;-1.61
70415;BMP280;57837;52.064;113.478;2023-11-19T00:35:36;93686.44;;;-1.55
70415;BMP280;57837;52.064;113.478;2023-11-19T00:38:40;93685.72;;;-1.56
70415;BMP280;57837;52.064;113.478;2023-11-19T00:41:44;93688.38;;;-1.42
70415;BMP280;57837;52.064;113.478;2023-11-19T00:44:49;93681.88;;;-1.39
70415;BMP280;57837;52.064;113.478;2023-11-19T00:47:53;93695.63;;;-1.44
70415;BMP280;57837;52.064;113.478;2023-11-19T00:50:57;93688.72;;;-1.43
70415;BMP280;57837;52.064;113.478;2023-11-19T00:54:01;93685.44;;;-1.47
70415;BMP280;57837;52.064;113.478;2023-11-19T00:57:05;93689.72;;;-1.14
70415;BMP280;57837;52.064;113.478;2023-11-19T01:00:09;93691.38;;;-0.85
70415;BMP280;57837;52.064;113.478;2023-11-19T01:03:22;93682.47;;;-0.50
70415;BMP280;57837;52.064;113.478;2023-11-19T01:06:32;93688.41;;;-0.32
70415;BMP280;57837;52.064;113.478;2023-11-19T01:09:36;93691.69;;;-0.28
70415;BMP280;57837;52.064;113.478;2023-11-19T01:12:39;93687.69;;;-0.29
70415;BMP280;57837;52.064;113.478;2023-11-19T01:15:43;93689.50;;;-0.22
70415;BMP280;57837;52.064;113.478;2023-11-19T01:18:47;93685.59;;;-0.06
70415;BMP280;57837;52.064;113.478;2023-11-19T01:21:51;93694.69;;;0.03
70415;BMP280;57837;52.064;113.478;2023-11-19T01:24:56;93690.41;;;0.24
70415;BMP280;57837;52.064;113.478;2023-11-19T01:28:00;93682.78;;;0.49
70415;BMP280;57837;52.064;113.478;2023-11-19T01:31:06;93684.59;;;0.59
70415;BMP280;57837;52.064;113.478;2023-11-19T01:34:11;93680.94;;;0.64
70415;BMP280;57837;52.064;113.478;2023-11-19T01:37:15;93681.31;;;0.62
70415;BMP280;57837;52.064;113.478;2023-11-19T01:40:22;93670.41;;;0.58
70415;BMP280;57837;52.064;113.478;2023-11-19T01:43:37;93661.31;;;0.72
70415;BMP280;57837;52.064;113.478;2023-11-19T01:46:45;93662.72;;;1.12
70415;BMP280;57837;52.064;113.478;2023-11-19T01:49:52;93660.19;;;1.15
70415;BMP280;57837;52.064;113.478;2023-11-19T01:52:56;93667.47;;;1.17
70415;BMP280;57837;52.064;113.478;2023-11-19T01:56:07;93660.19;;;1.19
70415;BMP280;57837;52.064;113.478;2023-11-19T01:59:14;93661.59;;;1.34
70415;BMP280;57837;52.064;113.478;2023-11-19T02:02:18;93658.25;;;1.48
70415;BMP280;57837;52.064;113.478;2023-11-19T02:05:26;93655.69;;;1.58
70415;BMP280;57837;52.064;113.478;2023-11-19T02:08:30;93657.81;;;1.74
70415;BMP280;57837;52.064;113.478;2023-11-19T02:11:35;93642.47;;;1.78
70415;BMP280;57837;52.064;113.478;2023-11-19T02:14:39;93648.69;;;1.77
70415;BMP280;57837;52.064;113.478;2023-11-19T02:17:44;93640.50;;;2.03
70415;BMP280;57837;52.064;113.478;2023-11-19T02:20:48;93630.16;;;2.24
70415;BMP280;57837;52.064;113.478;2023-11-19T02:23:53;93631.25;;;2.27
70415;BMP280;57837;52.064;113.478;2023-11-19T02:27:07;93642.47;;;2.40
70415;BMP280;57837;52.064;113.478;2023-11-19T02:30:14;93644.13;;;2.61
70415;BMP280;57837;52.064;113.478;2023-11-19T02:33:18;93643.22;;;2.78
70415;BMP280;57837;52.064;113.478;2023-11-19T02:36:22;93649.00;;;2.89
70415;BMP280;57837;52.064;113.478;2023-11-19T02:39:26;93647.00;;;3.04
70415;BMP280;57837;52.064;113.478;2023-11-19T02:42:29;93638.91;;;3.09
70415;BMP280;57837;52.064;113.478;2023-11-19T02:45:32;93632.97;;;3.23
70415;BMP280;57837;52.064;113.478;2023-11-19T02:48:36;93628.34;;;3.41
70415;BMP280;57837;52.064;113.478;2023-11-19T02:51:41;93636.47;;;3.63
70415;BMP280;57837;52.064;113.478;2023-11-19T02:54:45;93619.69;;;3.62
70415;BMP280;57837;52.064;113.478;2023-11-19T02:57:49;93614.66;;;3.55
70415;BMP280;57837;52.064;113.478;2023-11-19T03:00:55;93615.13;;;3.46
70415;BMP280;57837;52.064;113.478;2023-11-19T03:04:03;93607.03;;;3.51
70415;BMP280;57837;52.064;113.478;2023-11-19T03:07:08;93599.19;;;3.62
70415;BMP280;57837;52.064;113.478;2023-11-19T03:10:11;93599.47;;;3.71
70415;BMP280;57837;52.064;113.478;2023-11-19T03:13:18;93591.19;;;3.60
70415;BMP280;57837;52.064;113.478;2023-11-19T03:16:22;93593.75;;;3.60
70415;BMP280;57837;52.064;113.478;2023-11-19T03:19:26;93596.22;;;3.67
70415;BMP280;57837;52.064;113.478;2023-11-19T03:22:30;93576.06;;;3.72
70415;BMP280;57837;52.064;113.478;2023-11-19T03:25:35;93577.06;;;3.78
70415;BMP280;57837;52.064;113.478;2023-11-19T03:28:40;93567.53;;;3.79
70415;BMP280;57837;52.064;113.478;2023-11-19T03:31:44;93565.81;;;3.72
70415;BMP280;57837;52.064;113.478;2023-11-19T03:34:48;93567.78;;;3.61
70415;BMP280;57837;52.064;113.478;2023-11-19T03:37:52;93569.56;;;3.64
70415;BMP280;57837;52.064;113.478;2023-11-19T03:40:55;93565.13;;;3.68
70415;BMP280;57837;52.064;113.478;2023-11-19T03:43:59;93555.31;;;3.63
70415;BMP280;57837;52.064;113.478;2023-11-19T03:47:03;93545.03;;;3.67
70415;BMP280;57837;52.064;113.478;2023-11-19T03:50:08;93538.19;;;3.60
70415;BMP280;57837;52.064;113.478;2023-11-19T03:53:15;93530.34;;;3.47
70415;BMP280;57837;52.064;113.478;2023-11-19T03:56:18;93530.66;;;3.49
70415;BMP280;57837;52.064;113.478;2023-11-19T03:59:24;93531.94;;;3.34
70415;BMP280;57837;52.064;113.478;2023-11-19T04:02:28;93531.56;;;3.36
70415;BMP280;57837;52.064;113.478;2023-11-19T04:05:31;93537.38;;;3.40
70415;BMP280;57837;52.064;113.478;2023-11-19T04:08:35;93535.13;;;3.45
70415;BMP280;57837;52.064;113.478;2023-11-19T04:11:39;93524.53;;;3.43
70415;BMP280;57837;52.064;113.478;2023-11-19T04:14:43;93531.25;;;3.57
70415;BMP280;57837;52.064;113.478;2023-11-19T04:17:47;93523.66;;;3.54
70415;BMP280;57837;52.064;113.478;2023-11-19T04:20:52;93512.75;;;3.49
70415;BMP280;57837;52.064;113.478;2023-11-19T04:23:56;93507.59;;;3.53
70415;BMP280;57837;52.064;113.478;2023-11-19T04:27:00;93494.72;;;3.57
70415;BMP280;57837;52.064;113.478;2023-11-19T04:30:04;93495.03;;;3.62
70415;BMP280;57837;52.064;113.478;2023-11-19T04:33:08;93492.81;;;3.64
70415;BMP280;57837;52.064;113.478;2023-11-19T04:36:13;93478.84;;;3.69
70415;BMP280;57837;52.064;113.478;2023-11-19T04:39:17;93473.72;;;3.69
70415;BMP280;57837;52.064;113.478;2023-11-19T04:42:22;93469.34;;;3.69
70415;BMP280;57837;52.064;113.478;2023-11-19T04:45:26;93464.47;;;3.75
70415;BMP280;57837;52.064;113.478;2023-11-19T04:48:31;93476.25;;;3.72
70415;BMP280;57837;52.064;113.478;2023-11-19T04:51:45;93471.44;;;3.74
70415;BMP280;57837;52.064;113.478;2023-11-19T04:54:52;93450.53;;;3.79
70415;BMP280;57837;52.064;113.478;2023-11-19T04:57:56;93430.78;;;3.80
70415;BMP280;57837;52.064;113.478;2023-11-19T05:01:00;93419.44;;;3.81
70415;BMP280;57837;52.064;113.478;2023-11-19T05:04:04;93411.03;;;3.80
70415;BMP280;57837;52.064;113.478;2023-11-19T05:07:08;93408.28;;;3.91
70415;BMP280;57837;52.064;113.478;2023-11-19T05:10:12;93410.38;;;3.96
70415;BMP280;57837;52.064;113.478;2023-11-19T05:13:16;93413.66;;;3.97
70415;BMP280;57837;52.064;113.478;2023-11-19T05:16:20;93414.44;;;3.94
70415;BMP280;57837;52.064;113.478;2023-11-19T05:19:25;93409.34;;;3.94
70415;BMP280;57837;52.064;113.478;2023-11-19T05:22:28;93404.22;;;3.94
70415;BMP280;57837;52.064;113.478;2023-11-19T05:25:33;93399.38;;;3.76
70415;BMP280;57837;52.064;113.478;2023-11-19T05:28:38;93388.63;;;3.65
70415;BMP280;57837;52.064;113.478;2023-11-19T05:31:43;93382.81;;;3.61
70415;BMP280;57837;52.064;113.478;2023-11-19T05:34:47;93381.28;;;3.67
70415;BMP280;57837;52.064;113.478;2023-11-19T05:37:54;93372.56;;;3.84
70415;BMP280;57837;52.064;113.478;2023-11-19T05:40:58;93373.41;;;3.97
70415;BMP280;57837;52.064;113.478;2023-11-19T05:44:02;93362.13;;;4.14
70415;BMP280;57837;52.064;113.478;2023-11-19T05:47:05;93355.38;;;4.40
70415;BMP280;57837;52.064;113.478;2023-11-19T05:50:10;93340.84;;;4.53
70415;BMP280;57837;52.064;113.478;2023-11-19T05:53:13;93352.88;;;4.73
70415;BMP280;57837;52.064;113.478;2023-11-19T05:56:17;93346.31;;;5.04
70415;BMP280;57837;52.064;113.478;2023-11-19T05:59:24;93342.22;;;5.23
70415;BMP280;57837;52.064;113.478;2023-11-19T06:02:29;93325.91;;;5.29
70415;BMP280;57837;52.064;113.478;2023-11-19T06:05:33;93321.75;;;5.36
70415;BMP280;57837;52.064;113.478;2023-11-19T06:08:37;93305.56;;;5.22
70415;BMP280;57837;52.064;113.478;2023-11-19T06:11:41;93321.41;;;5.05
70415;BMP280;57837;52.064;113.478;2023-11-19T06:14:45;93307.69;;;4.95
70415;BMP280;57837;52.064;113.478;2023-11-19T06:17:49;93304.91;;;4.89
70415;BMP280;57837;52.064;113.478;2023-11-19T06:20:53;93308.03;;;4.81
70415;BMP280;57837;52.064;113.478;2023-11-19T06:23:58;93296.72;;;4.62
70415;BMP280;57837;52.064;113.478;2023-11-19T06:27:03;93298.41;;;4.52
70415;BMP280;57837;52.064;113.478;2023-11-19T06:30:08;93288.38;;;4.42
70415;BMP280;57837;52.064;113.478;2023-11-19T06:33:13;93289.69;;;4.34
70415;BMP280;57837;52.064;113.478;2023-11-19T06:36:17;93284.03;;;4.22
70415;BMP280;57837;52.064;113.478;2023-11-19T06:39:21;93273.94;;;4.15
70415;BMP280;57837;52.064;113.478;2023-11-19T06:42:25;93264.97;;;4.07
70415;BMP280;57837;52.064;113.478;2023-11-19T06:45:29;93270.16;;;4.04
70415;BMP280;57837;52.064;113.478;2023-11-19T06:48:33;93265.56;;;3.95
70415;BMP280;57837;52.064;113.478;2023-11-19T06:51:41;93263.47;;;3.90
70415;BMP280;57837;52.064;113.478;2023-11-19T06:54:47;93251.94;;;3.82
70415;BMP280;57837;52.064;113.478;2023-11-19T06:57:51;93255.41;;;3.92
70415;BMP280;57837;52.064;113.478;2023-11-19T07:00:55;93260.44;;;3.95
70415;BMP280;57837;52.064;113.478;2023-11-19T07:03:58;93253.47;;;3.96
70415;BMP280;57837;52.064;113.478;2023-11-19T07:07:02;93255.97;;;3.99
70415;BMP280;57837;52.064;113.478;2023-11-19T07:10:06;93243.44;;;4.05
70415;BMP280;57837;52.064;113.478;2023-11-19T07:13:13;93243.84;;;4.03
70415;BMP280;57837;52.064;113.478;2023-11-19T07:16:16;93239.09;;;4.02
70415;BMP280;57837;52.064;113.478;2023-11-19T07:19:20;93229.91;;;4.04
70415;BMP280;57837;52.064;113.478;2023-11-19T07:22:23;93236.63;;;3.98
70415;BMP280;57837;52.064;113.478;2023-11-19T07:25:27;93222.47;;;3.94
70415;BMP280;57837;52.064;113.478;2023-11-19T07:28:31;93223.31;;;3.87
70415;BMP280;57837;52.064;113.478;2023-11-19T07:31:35;93214.97;;;3.83
70415;BMP280;57837;52.064;113.478;2023-11-19T07:34:39;93204.34;;;3.84
70415;BMP280;57837;52.064;113.478;2023-11-19T07:37:44;93190.81;;;3.84
70415;BMP280;57837;52.064;113.478;2023-11-19T07:40:48;93179.97;;;3.80
70415;BMP280;57837;52.064;113.478;2023-11-19T07:43:54;93173.41;;;3.79
70415;BMP280;57837;52.064;113.478;2023-11-19T07:46:57;93170.56;;;3.73
70415;BMP280;57837;52.064;113.478;2023-11-19T07:50:02;93169.34;;;3.62
70415;BMP280;57837;52.064;113.478;2023-11-19T07:53:05;93159.91;;;3.59
70415;BMP280;57837;52.064;113.478;2023-11-19T07:56:10;93164.78;;;3.53
70415;BMP280;57837;52.064;113.478;2023-11-19T07:59:14;93157.31;;;3.42
70415;BMP280;57837;52.064;113.478;2023-11-19T08:02:17;93159.63;;;3.37
70415;BMP280;57837;52.064;113.478;2023-11-19T08:05:22;93148.50;;;3.27
70415;BMP280;57837;52.064;113.478;2023-11-19T08:08:28;93146.72;;;3.24
70415;BMP280;57837;52.064;113.478;2023-11-19T08:11:33;93139.84;;;3.21
70415;BMP280;57837;52.064;113.478;2023-11-19T08:14:37;93135.97;;;3.13
70415;BMP280;57837;52.064;113.478;2023-11-19T08:17:42;93134.19;;;3.10
70415;BMP280;57837;52.064;113.478;2023-11-19T08:20:48;93131.63;;;3.10
70415;BMP280;57837;52.064;113.478;2023-11-19T08:23:56;93133.53;;;3.06
70415;BMP280;57837;52.064;113.478;2023-11-19T08:26:59;93129.19;;;3.03
70415;BMP280;57837;52.064;113.478;2023-11-19T08:30:07;93118.81;;;2.94
70415;BMP280;57837;52.064;113.478;2023-11-19T08:33:11;93104.31;;;2.87
70415;BMP280;57837;52.064;113.478;2023-11-19T08:36:16;93098.22;;;2.81
70415;BMP280;57837;52.064;113.478;2023-11-19T08:39:23;93095.00;;;2.77
70415;BMP280;57837;52.064;113.478;2023-11-19T08:42:28;93089.25;;;2.73
70415;BMP280;57837;52.064;113.478;2023-11-19T08:45:31;93093.38;;;2.67
70415;BMP280;57837;52.064;113.478;2023-11-19T08:48:36;93082.50;;;2.63
70415;BMP280;57837;52.064;113.478;2023-11-19T08:51:39;93067.69;;;2.54
70415;BMP280;57837;52.064;113.478;2023-11-19T08:54:43;93062.69;;;2.47
70415;BMP280;57837;52.064;113.478;2023-11-19T08:57:47;93056.94;;;2.43
70415;BMP280;57837;52.064;113.478;2023-11-19T09:00:51;93059.88;;;2.41
70415;BMP280;57837;52.064;113.478;2023-11-19T09:03:55;93052.94;;;2.42
70415;BMP280;57837;52.064;113.478;2023-11-19T09:06:59;93033.63;;;2.41
70415;BMP280;57837;52.064;113.478;2023-11-19T09:10:02;93037.72;;;2.35
70415;BMP280;57837;52.064;113.478;2023-11-19T09:13:08;93038.50;;;2.32
70415;BMP280;57837;52.064;113.478;2023-11-19T09:16:12;93037.41;;;2.33
70415;BMP280;57837;52.064;113.478;2023-11-19T09:19:16;93026.81;;;2.34
70415;BMP280;57837;52.064;113.478;2023-11-19T09:22:20;93023.59;;;2.30
70415;BMP280;57837;52.064;113.478;2023-11-19T09:25:24;93025.41;;;2.30
70415;BMP280;57837;52.064;113.478;2023-11-19T09:28:28;93029.81;;;2.29
70415;BMP280;57837;52.064;113.478;2023-11-19T09:31:32;93026.22;;;2.27
70415;BMP280;57837;52.064;113.478;2023-11-19T09:34:35;93021.56;;;2.22
70415;BMP280;57837;52.064;113.478;2023-11-19T09:37:39;93018.66;;;2.20
70415;BMP280;57837;52.064;113.478;2023-11-19T09:40:43;93012.91;;;2.16
70415;BMP280;57837;52.064;113.478;2023-11-19T09:43:47;93006.44;;;2.11
70415;BMP280;57837;52.064;113.478;2023-11-19T09:46:52;93001.75;;;2.06
70415;BMP280;57837;52.064;113.478;2023-11-19T09:49:56;93003.25;;;2.03
70415;BMP280;57837;52.064;113.478;2023-11-19T09:53:01;93005.09;;;2.03
70415;BMP280;57837;52.064;113.478;2023-11-19T09:56:05;93006.94;;;2.02
70415;BMP280;57837;52.064;113.478;2023-11-19T09:59:11;92998.59;;;1.98
70415;BMP280;57837;52.064;113.478;2023-11-19T10:02:14;92992.78;;;1.98
70415;BMP280;57837;52.064;113.478;2023-11-19T10:05:20;92985.84;;;1.98
70415;BMP280;57837;52.064;113.478;2023-11-19T10:08:25;92979.69;;;1.96
70415;BMP280;57837;52.064;113.478;2023-11-19T10:11:29;92968.13;;;1.91
70415;BMP280;57837;52.064;113.478;2023-11-19T10:14:34;92964.72;;;1.98
70415;BMP280;57837;52.064;113.478;2023-11-19T10:17:41;92968.31;;;2.00
70415;BMP280;57837;52.064;113.478;2023-11-19T10:20:45;92952.28;;;2.00
70415;BMP280;57837;52.064;113.478;2023-11-19T10:23:51;92948.28;;;1.99
70415;BMP280;57837;52.064;113.478;2023-11-19T10:27:02;92942.09;;;2.00
70415;BMP280;57837;52.064;113.478;2023-11-19T10:30:08;92939.53;;;2.00
70415;BMP280;57837;52.064;113.478;2023-11-19T10:33:14;92946.19;;;1.94
70415;BMP280;57837;52.064;113.478;2023-11-19T10:36:37;92936.19;;;1.83
70415;BMP280;57837;52.064;113.478;2023-11-19T10:39:54;92927.22;;;1.75
70415;BMP280;57837;52.064;113.478;2023-11-19T10:43:03;92928.72;;;1.72
70415;BMP280;57837;52.064;113.478;2023-11-19T10:46:11;92911.28;;;1.67
70415;BMP280;57837;52.064;113.478;2023-11-19T10:49:15;92914.31;;;1.62
70415;BMP280;57837;52.064;113.478;2023-11-19T10:52:20;92919.03;;;1.64
70415;BMP280;57837;52.064;113.478;2023-11-19T10:55:27;92912.50;;;1.63
70415;BMP280;57837;52.064;113.478;2023-11-19T10:58:32;92906.34;;;1.60
70415;BMP280;57837;52.064;113.478;2023-11-19T11:01:44;92902.44;;;1.52
70415;BMP280;57837;52.064;113.478;2023-11-19T11:04:50;92897.31;;;1.32
70415;BMP280;57837;52.064;113.478;2023-11-19T11:07:55;92891.78;;;1.11
70415;BMP280;57837;52.064;113.478;2023-11-19T11:11:00;92878.97;;;0.91
70415;BMP280;57837;52.064;113.478;2023-11-19T11:14:05;92877.75;;;0.76
70415;BMP280;57837;52.064;113.478;2023-11-19T11:17:09;92872.06;;;0.64
70415;BMP280;57837;52.064;113.478;2023-11-19T11:20:14;92868.06;;;0.63
70415;BMP280;57837;52.064;113.478;2023-11-19T11:30:14;92877.09;;;0.68
70415;BMP280;57837;52.064;113.478;2023-11-19T11:40:36;92858.47;;;0.17
70415;BMP280;57837;52.064;113.478;2023-11-19T11:43:50;92847.06;;;-0.02
70415;BMP280;57837;52.064;113.478;2023-11-19T11:46:55;92839.41;;;-0.32
70415;BMP280;57837;52.064;113.478;2023-11-19T11:50:06;92838.03;;;-0.44
70415;BMP280;57837;52.064;113.478;2023-11-19T11:53:20;92823.25;;;-0.56
70415;BMP280;57837;52.064;113.478;2023-11-19T11:56:33;92834.94;;;-0.65
70415;BMP280;57837;52.064;113.478;2023-11-19T12:02:46;92806.66;;;-0.68
70415;BMP280;57837;52.064;113.478;2023-11-19T12:05:50;92796.06;;;-0.59
70415;BMP280;57837;52.064;113.478;2023-11-19T12:08:59;92795.69;;;-0.57
70415;BMP280;57837;52.064;113.478;2023-11-19T12:12:23;92789.94;;;-0.61
70415;BMP280;57837;52.064;113.478;2023-11-19T12:15:29;92787.78;;;-0.67
70415;BMP280;57837;52.064;113.478;2023-11-19T12:18:33;92768.25;;;-0.73
70415;BMP280;57837;52.064;113.478;2023-11-19T12:21:37;92758.16;;;-0.80
70415;BMP280;57837;52.064;113.478;2023-11-19T12:24:41;92753.13;;;-0.84
70415;BMP280;57837;52.064;113.478;2023-11-19T12:27:47;92740.53;;;-0.94
70415;BMP280;57837;52.064;113.478;2023-11-19T12:30:52;92725.31;;;-0.98
70415;BMP280;57837;52.064;113.478;2023-11-19T12:33:59;92724.00;;;-1.10
70415;BMP280;57837;52.064;113.478;2023-11-19T12:37:04;92715.34;;;-1.16
70415;BMP280;57837;52.064;113.478;2023-11-19T12:40:30;92717.16;;;-1.16
70415;BMP280;57837;52.064;113.478;2023-11-19T12:43:34;92708.72;;;-1.06
70415;BMP280;57837;52.064;113.478;2023-11-19T12:46:41;92710.44;;;-0.96
70415;BMP280;57837;52.064;113.478;2023-11-19T12:49:58;92722.03;;;-0.95
70415;BMP280;57837;52.064;113.478;2023-11-19T12:53:01;92716.59;;;-0.97
70415;BMP280;57837;52.064;113.478;2023-11-19T12:56:09;92709.75;;;-1.00
70415;BMP280;57837;52.064;113.478;2023-11-19T12:59:13;92707.72;;;-1.16
70415;BMP280;57837;52.064;113.478;2023-11-19T13:02:17;92711.16;;;-1.40
70415;BMP280;57837;52.064;113.478;2023-11-19T13:05:24;92717.44;;;-1.59
70415;BMP280;57837;52.064;113.478;2023-11-19T13:08:42;92716.81;;;-1.66
70415;BMP280;57837;52.064;113.478;2023-11-19T13:11:50;92709.22;;;-1.70
70415;BMP280;57837;52.064;113.478;2023-11-19T13:14:54;92693.31;;;-1.78
70415;BMP280;57837;52.064;113.478;2023-11-19T13:17:58;92694.09;;;-1.91
70415;BMP280;57837;52.064;113.478;2023-11-19T13:21:04;92687.56;;;-1.89
70415;BMP280;57837;52.064;113.478;2023-11-19T13:24:09;92679.31;;;-2.00
70415;BMP280;57837;52.064;113.478;2023-11-19T13:27:13;92662.69;;;-2.05
70415;BMP280;57837;52.064;113.478;2023-11-19T13:30:19;92653.59;;;-1.98
70415;BMP280;57837;52.064;113.478;2023-11-19T13:33:26;92646.28;;;-1.89
70415;BMP280;57837;52.064;113.478;2023-11-19T13:36:30;92633.91;;;-1.77
70415;BMP280;57837;52.064;113.478;2023-11-19T13:39:35;92634.25;;;-1.71
70415;BMP280;57837;52.064;113.478;2023-11-19T13:42:40;92630.88;;;-1.61
70415;BMP280;57837;52.064;113.478;2023-11-19T13:45:47;92625.47;;;-1.63
70415;BMP280;57837;52.064;113.478;2023-11-19T13:48:53;92608.22;;;-1.38
70415;BMP280;57837;52.064;113.478;2023-11-19T13:51:57;92610.47;;;-1.09
70415;BMP280;57837;52.064;113.478;2023-11-19T13:55:26;92611.75;;;-0.94
70415;BMP280;57837;52.064;113.478;2023-11-19T13:58:31;92596.50;;;-1.24
70415;BMP280;57837;52.064;113.478;2023-11-19T14:01:36;92594.53;;;-1.47
70415;BMP280;57837;52.064;113.478;2023-11-19T14:04:41;92588.84;;;-2.07
70415;BMP280;57837;52.064;113.478;2023-11-19T14:07:45;92585.88;;;-2.50
70415;BMP280;57837;52.064;113.478;2023-11-19T14:10:56;92578.03;;;-2.77
70415;BMP280;57837;52.064;113.478;2023-11-19T14:14:02;92583.88;;;-2.97
70415;BMP280;57837;52.064;113.478;2023-11-19T14:17:06;92575.66;;;-3.16
70415;BMP280;57837;52.064;113.478;2023-11-19T14:20:14;92576.78;;;-3.38
70415;BMP280;57837;52.064;113.478;2023-11-19T14:23:18;92560.22;;;-3.57
70415;BMP280;57837;52.064;113.478;2023-11-19T14:26:21;92559.13;;;-3.63
70415;BMP280;57837;52.064;113.478;2023-11-19T14:29:25;92565.59;;;-3.48
70415;BMP280;57837;52.064;113.478;2023-11-19T14:32:32;92572.09;;;-3.54
70415;BMP280;57837;52.064;113.478;2023-11-19T14:35:36;92555.53;;;-3.69
70415;BMP280;57837;52.064;113.478;2023-11-19T14:38:40;92555.88;;;-3.74
70415;BMP280;57837;52.064;113.478;2023-11-19T14:41:44;92550.09;;;-3.82
70415;BMP280;57837;52.064;113.478;2023-11-19T14:44:48;92544.34;;;-3.86
70415;BMP280;57837;52.064;113.478;2023-11-19T14:47:51;92542.91;;;-3.90
70415;BMP280;57837;52.064;113.478;2023-11-19T14:50:55;92545.44;;;-3.83
70415;BMP280;57837;52.064;113.478;2023-11-19T14:54:00;92552.25;;;-3.77
70415;BMP280;57837;52.064;113.478;2023-11-19T14:57:03;92546.47;;;-3.74
70415;BMP280;57837;52.064;113.478;2023-11-19T15:00:08;92543.63;;;-3.69
70415;BMP280;57837;52.064;113.478;2023-11-19T15:03:16;92544.69;;;-3.62
70415;BMP280;57837;52.064;113.478;2023-11-19T15:06:25;92536.03;;;-3.61
70415;BMP280;57837;52.064;113.478;2023-11-19T15:09:30;92541.81;;;-3.72
70415;BMP280;57837;52.064;113.478;2023-11-19T15:12:37;92538.19;;;-3.67
70415;BMP280;57837;52.064;113.478;2023-11-19T15:15:43;92527.31;;;-3.53
70415;BMP280;57837;52.064;113.478;2023-11-19T15:18:47;92491.56;;;-3.45
70415;BMP280;57837;52.064;113.478;2023-11-19T15:21:51;92496.25;;;-3.50
70415;BMP280;57837;52.064;113.478;2023-11-19T15:24:55;92487.63;;;-3.56
70415;BMP280;57837;52.064;113.478;2023-11-19T15:27:58;92474.63;;;-3.58
70415;BMP280;57837;52.064;113.478;2023-11-19T15:31:01;92474.28;;;-3.57
70415;BMP280;57837;52.064;113.478;2023-11-19T15:34:05;92474.28;;;-3.57
70415;BMP280;57837;52.064;113.478;2023-11-19T15:37:09;92487.22;;;-3.51
70415;BMP280;57837;52.064;113.478;2023-11-19T15:40:16;92507.84;;;-3.56
70415;BMP280;57837;52.064;113.478;2023-11-19T15:43:20;92502.84;;;-3.85
70415;BMP280;57837;52.064;113.478;2023-11-19T15:46:25;92496.72;;;-4.05
70415;BMP280;57837;52.064;113.478;2023-11-19T15:49:29;92488.78;;;-4.36
70415;BMP280;57837;52.064;113.478;2023-11-19T15:52:33;92492.03;;;-4.32
70415;BMP280;57837;52.064;113.478;2023-11-19T15:55:37;92482.28;;;-4.30
70415;BMP280;57837;52.064;113.478;2023-11-19T15:58:40;92477.97;;;-4.15
70415;BMP280;57837;52.064;113.478;2023-11-19T16:01:44;92475.06;;;-4.06
70415;BMP280;57837;52.064;113.478;2023-11-19T16:04:48;92477.94;;;-4.01
70415;BMP280;57837;52.064;113.478;2023-11-19T16:07:54;92484.81;;;-4.01
70415;BMP280;57837;52.064;113.478;2023-11-19T16:10:57;92472.91;;;-4.08
70415;BMP280;57837;52.064;113.478;2023-11-19T16:14:02;92467.88;;;-4.18
70415;BMP280;57837;52.064;113.478;2023-11-19T16:17:06;92476.16;;;-4.36
70415;BMP280;57837;52.064;113.478;2023-11-19T16:20:10;92467.88;;;-4.47
70415;BMP280;57837;52.064;113.478;2023-11-19T16:23:14;92461.00;;;-4.57
70415;BMP280;57837;52.064;113.478;2023-11-19T16:26:20;92451.97;;;-4.62
70415;BMP280;57837;52.064;113.478;2023-11-19T16:29:23;92436.50;;;-4.42
70415;BMP280;57837;52.064;113.478;2023-11-19T16:32:27;92445.88;;;-4.43
70415;BMP280;57837;52.064;113.478;2023-11-19T16:35:30;92455.22;;;-4.61
70415;BMP280;57837;52.064;113.478;2023-11-19T16:38:34;92452.34;;;-4.74
70415;BMP280;57837;52.064;113.478;2023-11-19T16:41:38;92451.63;;;-4.64
70415;BMP280;57837;52.064;113.478;2023-11-19T16:44:46;92444.44;;;-4.37
70415;BMP280;57837;52.064;113.478;2023-11-19T16:47:49;92432.88;;;-4.20
70415;BMP280;57837;52.064;113.478;2023-11-19T16:50:56;92432.13;;;-4.03
70415;BMP280;57837;52.064;113.478;2023-11-19T16:54:03;92433.91;;;-4.00
70415;BMP280;57837;52.064;113.478;2023-11-19T16:57:08;92423.09;;;-4.04
70415;BMP280;57837;52.064;113.478;2023-11-19T17:00:12;92436.44;;;-4.00
70415;BMP280;57837;52.064;113.478;2023-11-19T17:03:18;92438.31;;;-4.14
70415;BMP280;57837;52.064;113.478;2023-11-19T17:06:22;92437.94;;;-4.23
70415;BMP280;57837;52.064;113.478;2023-11-19T17:09:26;92444.44;;;-4.26
70415;BMP280;57837;52.064;113.478;2023-11-19T17:12:31;92437.94;;;-4.34
70415;BMP280;57837;52.064;113.478;2023-11-19T17:15:35;92416.66;;;-4.26
70415;BMP280;57837;52.064;113.478;2023-11-19T17:18:41;92426.00;;;-4.05
70415;BMP280;57837;52.064;113.478;2023-11-19T17:21:44;92429.97;;;-4.04
70415;BMP280;57837;52.064;113.478;2023-11-19T17:24:47;92435.00;;;-4.01
70415;BMP280;57837;52.064;113.478;2023-11-19T17:27:51;92437.16;;;-3.99
70415;BMP280;57837;52.064;113.478;2023-11-19T17:30:58;92444.38;;;-4.01
70415;BMP280;57837;52.064;113.478;2023-11-19T17:34:03;92432.88;;;-4.16
70415;BMP280;57837;52.064;113.478;2023-11-19T17:37:07;92422.03;;;-4.06
70415;BMP280;57837;52.064;113.478;2023-11-19T17:40:11;92432.50;;;-3.93
70415;BMP280;57837;52.064;113.478;2023-11-19T17:43:16;92432.84;;;-3.99